createdAt,value
2022-08-12T00:01:03.441Z,100811.00
2022-08-12T00:03:50.960Z,100791.72
2022-08-12T00:06:39.098Z,100798.59
2022-08-12T00:09:26.497Z,100802.72
2022-08-12T00:12:13.024Z,100796.13
2022-08-12T00:14:59.117Z,100798.13
2022-08-12T00:17:45.051Z,100799.44
2022-08-12T00:20:30.835Z,100801.53
2022-08-12T00:23:17.434Z,100794.38
2022-08-12T00:26:22.374Z,100798.78
2022-08-12T00:29:14.871Z,100780.28
2022-08-12T00:32:01.679Z,100797.41
2022-08-12T00:34:51.969Z,100806.72
2022-08-12T00:37:39.192Z,100799.22
2022-08-12T00:40:28.948Z,100798.97
2022-08-12T00:42:57.292Z,100797.19
2022-08-12T00:45:25.093Z,100797.19
2022-08-12T00:47:53.818Z,100800.88
2022-08-12T00:50:22.529Z,100799.94
2022-08-12T00:52:52.055Z,100795.31
2022-08-12T00:55:20.098Z,100801.84
2022-08-12T00:57:50.010Z,100790.72
2022-08-12T01:00:23.871Z,100801.03
2022-08-12T01:02:55.765Z,100797.69
2022-08-12T01:05:42.959Z,100801.38
2022-08-12T01:08:29.980Z,100798.22
2022-08-12T01:11:16.749Z,100804.09
2022-08-12T01:13:48.164Z,100797.44
2022-08-12T01:16:22.648Z,100800.78
2022-08-12T01:18:52.989Z,100801.13
2022-08-12T01:21:34.080Z,100809.19
2022-08-12T01:24:30.327Z,100804.41
2022-08-12T01:27:01.482Z,100813.06
2022-08-12T01:29:32.791Z,100809.34
2022-08-12T01:32:09.068Z,100819.56
2022-08-12T01:34:39.726Z,100823.88
2022-08-12T01:37:09.142Z,100818.56
2022-08-12T01:40:31.378Z,100819.25
2022-08-12T01:42:51.291Z,100805.97
2022-08-12T01:45:24.976Z,100823.56
2022-08-12T01:48:08.161Z,100816.06
2022-08-12T01:51:00.422Z,100822.56
2022-08-12T01:54:06.261Z,100817.56
2022-08-12T01:56:59.098Z,100821.63
2022-08-12T01:59:59.322Z,100823.63
2022-08-12T02:02:27.195Z,100820.47
2022-08-12T02:05:33.937Z,100818.16
2022-08-12T02:08:37.610Z,100814.31
2022-08-12T02:11:31.047Z,100823.69
2022-08-12T02:14:24.893Z,100830.63
2022-08-12T02:17:01.077Z,100826.38
2022-08-12T02:20:05.438Z,100826.41
2022-08-12T02:22:42.589Z,100821.19
2022-08-12T02:25:16.015Z,100819.75
2022-08-12T02:27:51.915Z,100812.88
2022-08-12T02:30:21.814Z,100814.00
2022-08-12T02:32:50.988Z,100818.03
2022-08-12T02:35:23.434Z,100819.47
2022-08-12T02:37:52.840Z,100812.94
2022-08-12T02:40:21.111Z,100794.34
2022-08-12T02:43:00.319Z,100821.22
2022-08-12T02:45:45.422Z,100814.19
2022-08-12T02:48:17.884Z,100806.34
2022-08-12T02:50:49.152Z,100816.22
2022-08-12T02:53:17.830Z,100808.22
2022-08-12T02:55:48.109Z,100806.34
2022-08-12T02:58:15.696Z,100815.22
2022-08-12T03:00:47.259Z,100813.38
2022-08-12T03:03:15.703Z,100806.78
2022-08-12T03:05:59.733Z,100821.88
2022-08-12T03:08:32.546Z,100820.00
2022-08-12T03:11:04.720Z,100814.78
2022-08-12T03:13:39.911Z,100821.19
2022-08-12T03:16:08.077Z,100819.91
2022-08-12T03:18:35.556Z,100824.28
2022-08-12T03:21:03.421Z,100820.75
2022-08-12T03:23:31.555Z,100827.19
2022-08-12T03:26:01.951Z,100807.41
2022-08-12T03:28:51.044Z,100812.69
2022-08-12T03:31:22.225Z,100814.03
2022-08-12T03:34:01.403Z,100812.91
2022-08-12T03:36:34.008Z,100808.22
2022-08-12T03:39:16.750Z,100816.13
2022-08-12T03:42:09.074Z,100821.09
2022-08-12T03:45:05.817Z,100798.06
2022-08-12T03:48:02.226Z,100814.97
2022-08-12T03:50:49.468Z,100824.41
2022-08-12T03:53:47.901Z,100829.75
2022-08-12T03:56:34.627Z,100825.59
2022-08-12T03:59:24.574Z,100821.69
2022-08-12T04:01:57.355Z,100817.78
2022-08-12T04:04:36.287Z,100817.16
2022-08-12T04:07:08.539Z,100821.06
2022-08-12T04:09:39.120Z,100817.78
2022-08-12T04:12:26.436Z,100823.88
2022-08-12T04:14:54.684Z,100822.13
2022-08-12T04:17:22.095Z,100819.00
2022-08-12T04:19:49.319Z,100818.84
2022-08-12T04:22:16.578Z,100809.44
2022-08-12T04:24:46.468Z,100814.56
2022-08-12T04:27:17.773Z,100808.09
2022-08-12T04:30:29.620Z,100815.63
2022-08-12T04:32:32.430Z,100812.53
2022-08-12T04:34:59.529Z,100809.09
2022-08-12T04:37:58.905Z,100805.69
2022-08-12T04:40:28.083Z,100830.06
2022-08-12T04:42:57.185Z,100816.41
2022-08-12T04:45:24.997Z,100806.66
2022-08-12T04:47:52.345Z,100817.34
2022-08-12T04:50:34.579Z,100821.91
2022-08-12T04:53:08.717Z,100811.22
2022-08-12T04:55:38.909Z,100819.31
2022-08-12T04:58:10.362Z,100816.22
2022-08-12T05:00:38.387Z,100813.16
2022-08-12T05:03:09.137Z,100811.75
2022-08-12T05:05:40.280Z,100815.94
2022-08-12T05:08:17.801Z,100815.75
2022-08-12T05:10:47.070Z,100810.63
2022-08-12T05:13:18.680Z,100816.03
2022-08-12T05:15:53.004Z,100795.81
2022-08-12T05:18:39.234Z,100812.81
2022-08-12T05:21:08.426Z,100812.84
2022-08-12T05:23:40.436Z,100815.53
2022-08-12T05:26:07.878Z,100813.69
2022-08-12T05:28:35.071Z,100819.91
2022-08-12T05:31:02.285Z,100820.31
2022-08-12T05:33:41.064Z,100819.47
2022-08-12T05:36:13.917Z,100814.72
2022-08-12T05:38:58.109Z,100804.63
2022-08-12T05:41:28.575Z,100806.28
2022-08-12T05:43:56.975Z,100811.09
2022-08-12T05:46:25.376Z,100807.19
2022-08-12T05:48:56.501Z,100812.53
2022-08-12T05:51:25.475Z,100800.75
2022-08-12T05:54:08.563Z,100798.91
2022-08-12T05:56:36.548Z,100805.13
2022-08-12T05:59:08.143Z,100808.00
2022-08-12T06:02:11.715Z,100813.81
2022-08-12T06:04:22.965Z,100807.63
2022-08-12T06:06:53.551Z,100797.50
2022-08-12T06:09:22.803Z,100812.78
2022-08-12T06:12:04.144Z,100803.50
2022-08-12T06:14:33.734Z,100802.41
2022-08-12T06:17:01.268Z,100801.78
2022-08-12T06:20:27.994Z,100772.47
2022-08-12T06:22:17.174Z,100801.72
2022-08-12T06:24:44.210Z,100796.38
2022-08-12T06:27:11.672Z,100783.53
2022-08-12T06:30:08.205Z,100790.97
2022-08-12T06:32:28.551Z,100796.75
2022-08-12T06:35:25.111Z,100794.63
2022-08-12T06:37:51.455Z,100786.91
2022-08-12T06:40:43.705Z,100792.84
2022-08-12T06:43:10.901Z,100788.25
2022-08-12T06:45:46.863Z,100786.94
2022-08-12T06:48:14.435Z,100790.66
2022-08-12T06:50:42.595Z,100800.84
2022-08-12T06:53:11.373Z,100801.06
2022-08-12T06:55:45.319Z,100796.81
2022-08-12T06:58:26.293Z,100792.00
2022-08-12T07:00:54.697Z,100791.69
2022-08-12T07:03:28.687Z,100781.72
2022-08-12T07:06:05.285Z,100783.59
2022-08-12T07:08:36.026Z,100765.22
2022-08-12T07:11:06.187Z,100783.22
2022-08-12T07:14:12.727Z,100782.41
2022-08-12T07:16:50.464Z,100778.09
2022-08-12T07:19:17.569Z,100780.09
2022-08-12T07:22:02.269Z,100767.03
2022-08-12T07:24:37.986Z,100777.44
2022-08-12T07:27:05.007Z,100785.41
2022-08-12T07:29:57.791Z,100779.84
2022-08-12T07:32:23.732Z,100777.19
2022-08-12T07:34:50.709Z,100771.28
2022-08-12T07:37:17.903Z,100778.75
2022-08-12T07:39:49.918Z,100771.84
2022-08-12T07:42:18.618Z,100771.09
2022-08-12T07:44:46.493Z,100764.38
2022-08-12T07:47:18.880Z,100775.75
2022-08-12T07:50:05.289Z,100768.56
2022-08-12T07:52:34.283Z,100770.28
2022-08-12T07:55:02.029Z,100777.50
2022-08-12T07:57:32.587Z,100772.63
2022-08-12T08:00:09.328Z,100773.94
2022-08-12T08:02:39.214Z,100767.00
2022-08-12T08:05:06.901Z,100773.59
2022-08-12T08:07:36.554Z,100764.38
2022-08-12T08:10:07.412Z,100766.94
2022-08-12T08:12:53.403Z,100775.16
2022-08-12T08:16:02.026Z,100768.81
2022-08-12T08:18:27.596Z,100763.94
2022-08-12T08:20:56.766Z,100770.75
2022-08-12T08:23:46.287Z,100761.13
2022-08-12T08:26:15.765Z,100765.59
2022-08-12T08:28:43.444Z,100755.31
2022-08-12T08:31:12.399Z,100750.94
2022-08-12T08:34:04.315Z,100740.38
2022-08-12T08:36:27.023Z,100757.78
2022-08-12T08:38:57.982Z,100762.00
2022-08-12T08:42:17.008Z,100742.16
2022-08-12T08:44:38.340Z,100738.75
2022-08-12T08:47:11.274Z,100764.53
2022-08-12T08:49:39.835Z,100756.94
2022-08-12T08:52:11.100Z,100741.31
2022-08-12T08:54:38.615Z,100731.91
2022-08-12T08:57:08.221Z,100750.66
2022-08-12T08:59:35.316Z,100746.06
2022-08-12T09:02:02.719Z,100746.94
2022-08-12T09:05:12.130Z,100738.84
2022-08-12T09:07:43.895Z,100744.88
2022-08-12T09:10:09.223Z,100742.09
2022-08-12T09:13:23.121Z,100745.50
2022-08-12T09:15:56.145Z,100727.06
2022-08-12T09:18:30.823Z,100736.00
2022-08-12T09:21:01.942Z,100727.91
2022-08-12T09:26:19.235Z,100737.31
2022-08-12T09:28:52.777Z,100727.13
2022-08-12T09:32:03.373Z,100726.34
2022-08-12T09:34:28.894Z,100728.94
2022-08-12T09:37:02.950Z,100725.22
2022-08-12T09:40:05.534Z,100722.41
2022-08-12T09:43:15.046Z,100715.34
2022-08-12T09:46:06.430Z,100712.47
2022-08-12T09:48:26.865Z,100709.84
2022-08-12T09:51:02.387Z,100718.81
2022-08-12T09:54:33.901Z,100713.19
2022-08-12T09:57:00.128Z,100714.13
2022-08-12T09:59:08.165Z,100709.56
2022-08-12T10:02:42.294Z,100701.69
2022-08-12T10:04:26.111Z,100704.78
2022-08-12T10:06:57.878Z,100698.47
2022-08-12T10:09:28.857Z,100703.84
2022-08-12T10:12:33.302Z,100673.97
2022-08-12T10:15:02.121Z,100697.94
2022-08-12T10:17:29.447Z,100689.50
2022-08-12T10:19:59.817Z,100697.00
2022-08-12T10:22:39.280Z,100669.63
2022-08-12T10:26:10.051Z,100669.31
2022-08-12T10:28:36.038Z,100683.53
2022-08-12T10:31:05.853Z,100666.16
2022-08-12T10:33:50.650Z,100681.75
2022-08-12T10:36:36.296Z,100677.91
2022-08-12T10:40:00.337Z,100682.25
2022-08-12T10:42:16.415Z,100677.31
2022-08-12T10:45:01.040Z,100675.88
2022-08-12T10:48:07.036Z,100677.03
2022-08-12T10:50:33.645Z,100666.06
2022-08-12T10:53:08.864Z,100658.53
2022-08-12T10:55:36.463Z,100661.81
2022-08-12T10:58:14.363Z,100657.09
2022-08-12T11:00:55.184Z,100658.28
2022-08-12T11:04:27.371Z,100652.19
2022-08-12T11:07:07.468Z,100642.78
2022-08-12T11:09:12.271Z,100641.41
2022-08-12T11:12:34.644Z,100644.88
2022-08-12T11:14:49.260Z,100643.72
2022-08-12T11:17:34.655Z,100635.72
2022-08-12T11:20:05.454Z,100614.63
2022-08-12T11:22:32.512Z,100637.13
2022-08-12T11:24:59.600Z,100621.75
2022-08-12T11:27:34.360Z,100629.63
2022-08-12T11:30:07.069Z,100620.19
2022-08-12T11:32:51.076Z,100625.16
2022-08-12T11:35:18.223Z,100609.16
2022-08-12T11:37:57.931Z,100615.38
2022-08-12T11:40:26.054Z,100615.78
2022-08-12T11:43:00.672Z,100608.47
2022-08-12T11:45:47.057Z,100604.25
2022-08-12T11:48:15.697Z,100598.84
2022-08-12T11:50:45.935Z,100601.63
2022-08-12T11:53:57.152Z,100601.84
2022-08-12T11:55:59.775Z,100592.09
2022-08-12T11:59:44.331Z,100592.31
2022-08-12T12:02:01.388Z,100602.59
2022-08-12T12:04:01.263Z,100600.28
2022-08-12T12:06:29.101Z,100572.59
2022-08-12T12:08:56.281Z,100584.16
2022-08-12T12:11:27.648Z,100583.72
2022-08-12T12:14:15.806Z,100583.78
2022-08-12T12:16:50.004Z,100582.81
2022-08-12T12:19:19.126Z,100581.19
2022-08-12T12:21:47.192Z,100572.53
2022-08-12T12:24:21.714Z,100567.97
2022-08-12T12:27:00.065Z,100563.13
2022-08-12T12:30:19.273Z,100563.47
2022-08-12T12:32:17.111Z,100564.28
2022-08-12T12:35:13.542Z,100569.22
2022-08-12T12:38:03.940Z,100571.31
2022-08-12T12:40:22.686Z,100556.97
2022-08-12T12:43:01.706Z,100556.88
2022-08-12T12:45:34.098Z,100559.22
2022-08-12T12:48:13.516Z,100547.13
2022-08-12T12:50:51.378Z,100552.03
2022-08-12T12:54:05.275Z,100553.00
2022-08-12T12:56:21.071Z,100552.28
2022-08-12T12:59:02.715Z,100542.41
2022-08-12T13:01:32.857Z,100551.09
2022-08-12T13:04:02.966Z,100552.72
2022-08-12T13:06:31.493Z,100553.44
2022-08-12T13:09:03.260Z,100552.38
2022-08-12T13:11:35.451Z,100549.66
2022-08-12T13:14:28.314Z,100536.88
2022-08-12T13:16:57.762Z,100533.44
2022-08-12T13:19:38.862Z,100540.50
2022-08-12T13:22:21.716Z,100540.50
2022-08-12T13:24:55.458Z,100536.06
2022-08-12T13:27:35.270Z,100539.34
2022-08-12T13:30:06.849Z,100534.09
2022-08-12T13:32:38.768Z,100536.72
2022-08-12T13:35:19.937Z,100531.66
2022-08-12T13:37:59.291Z,100532.53
2022-08-12T13:40:32.871Z,100532.47
2022-08-12T13:43:02.041Z,100535.34
2022-08-12T13:45:31.847Z,100523.47
2022-08-12T13:48:06.879Z,100526.06
2022-08-12T13:50:39.625Z,100526.34
2022-08-12T13:53:24.623Z,100516.91
2022-08-12T13:56:01.856Z,100518.25
2022-08-12T13:58:32.812Z,100522.97
2022-08-12T14:01:06.085Z,100525.94
2022-08-12T14:03:50.444Z,100510.53
2022-08-12T14:06:19.662Z,100511.69
2022-08-12T14:08:49.945Z,100506.84
2022-08-12T14:11:19.187Z,100517.91
2022-08-12T14:14:04.151Z,100505.28
2022-08-12T14:16:46.721Z,100513.16
2022-08-12T14:19:24.311Z,100504.03
2022-08-12T14:22:00.883Z,100496.28
2022-08-12T14:24:40.070Z,100505.97
2022-08-12T14:27:09.392Z,100497.28
2022-08-12T14:30:05.350Z,100497.41
2022-08-12T14:32:35.656Z,100503.81
2022-08-12T14:35:09.923Z,100504.56
2022-08-12T14:37:58.009Z,100497.09
2022-08-12T14:40:29.998Z,100492.09
2022-08-12T14:43:00.127Z,100494.81
2022-08-12T14:45:45.524Z,100499.63
2022-08-12T14:48:18.752Z,100503.97
2022-08-12T14:51:03.011Z,100503.00
2022-08-12T14:59:57.160Z,100505.44
2022-08-12T15:02:21.025Z,100517.41
2022-08-12T15:04:56.219Z,100502.16
2022-08-12T15:07:33.427Z,100516.44
2022-08-12T15:10:10.907Z,100509.38
2022-08-12T15:12:40.488Z,100509.72
2022-08-12T15:15:09.065Z,100502.69
2022-08-12T15:17:38.745Z,100500.28
2022-08-12T15:20:31.567Z,100503.50
2022-08-12T15:22:57.913Z,100498.22
2022-08-12T15:25:28.666Z,100510.63
2022-08-12T15:28:03.876Z,100505.63
2022-08-12T15:30:33.852Z,100504.44
2022-08-12T15:33:12.228Z,100500.22
2022-08-12T15:35:50.177Z,100499.03
2022-08-12T15:38:21.877Z,100503.81
2022-08-12T15:40:52.595Z,100507.91
2022-08-12T15:43:35.301Z,100500.88
2022-08-12T15:46:27.600Z,100517.25
2022-08-12T15:48:59.590Z,100502.69
2022-08-12T15:51:59.228Z,100508.16
2022-08-12T15:54:34.057Z,100507.75
2022-08-12T15:57:08.039Z,100512.50
2022-08-12T15:59:51.435Z,100513.56
2022-08-12T16:02:29.319Z,100508.31
2022-08-12T16:04:57.705Z,100514.81
2022-08-12T16:07:26.000Z,100509.81
2022-08-12T16:10:06.881Z,100508.03
2022-08-12T16:12:54.544Z,100517.94
2022-08-12T16:15:29.494Z,100521.97
2022-08-12T16:18:14.877Z,100518.72
2022-08-12T16:20:47.475Z,100511.38
2022-08-12T16:23:36.028Z,100518.22
2022-08-12T16:26:15.412Z,100509.66
2022-08-12T16:28:48.095Z,100507.34
2022-08-12T16:31:23.072Z,100517.72
2022-08-12T16:33:59.284Z,100511.50
2022-08-12T16:36:29.789Z,100515.44
2022-08-12T16:39:01.420Z,100511.47
2022-08-12T16:41:38.006Z,100520.03
2022-08-12T16:44:08.872Z,100530.94
2022-08-12T16:46:37.486Z,100521.09
2022-08-12T16:49:13.125Z,100529.44
2022-08-12T16:51:46.470Z,100534.59
2022-08-12T16:54:20.169Z,100525.34
2022-08-12T16:56:58.474Z,100527.38
2022-08-12T16:59:53.646Z,100521.72
2022-08-12T17:02:31.124Z,100524.06
2022-08-12T17:05:03.643Z,100517.16
2022-08-12T17:07:36.757Z,100524.28
2022-08-12T17:10:09.451Z,100524.06
2022-08-12T17:12:41.920Z,100516.78
2022-08-12T17:15:25.668Z,100532.50
2022-08-12T17:18:15.099Z,100531.41
2022-08-12T17:20:47.518Z,100537.59
2022-08-12T17:23:19.626Z,100530.56
2022-08-12T17:25:50.599Z,100514.63
2022-08-12T17:28:19.372Z,100505.47
2022-08-12T17:30:57.404Z,100531.63
2022-08-12T17:33:27.264Z,100527.84
2022-08-12T17:35:58.672Z,100536.59
2022-08-12T17:38:25.695Z,100532.66
2022-08-12T17:40:54.827Z,100538.13
2022-08-12T17:43:56.007Z,100536.78
2022-08-12T17:46:12.764Z,100533.03
2022-08-12T17:48:55.362Z,100539.69
2022-08-12T17:51:24.529Z,100537.69
2022-08-12T17:54:11.030Z,100519.47
2022-08-12T17:56:43.311Z,100534.25
2022-08-12T17:59:12.504Z,100529.31
2022-08-12T18:01:45.150Z,100544.44
2022-08-12T18:04:21.595Z,100538.47
2022-08-12T18:06:51.930Z,100519.25
2022-08-12T18:09:21.246Z,100536.53
2022-08-12T18:12:08.358Z,100537.25
2022-08-12T18:14:38.057Z,100537.25
2022-08-12T18:17:10.115Z,100537.75
2022-08-12T18:20:07.076Z,100537.88
2022-08-12T18:22:31.706Z,100553.59
2022-08-12T18:25:04.851Z,100553.28
2022-08-12T18:27:43.690Z,100549.16
2022-08-12T18:30:16.438Z,100539.06
2022-08-12T18:33:03.085Z,100546.59
2022-08-12T18:35:47.088Z,100548.28
2022-08-12T18:38:21.834Z,100552.31
2022-08-12T18:41:10.366Z,100543.63
2022-08-12T18:43:59.090Z,100553.81
2022-08-12T18:46:54.406Z,100543.16
2022-08-12T18:49:39.407Z,100549.44
2022-08-12T18:52:08.119Z,100551.00
2022-08-12T18:54:53.304Z,100557.84
2022-08-12T18:58:07.203Z,100551.66
2022-08-12T19:00:22.229Z,100538.16
2022-08-12T19:02:53.068Z,100558.22
2022-08-12T19:05:20.517Z,100552.69
2022-08-12T19:08:00.234Z,100551.50
2022-08-12T19:10:32.163Z,100556.25
2022-08-12T19:13:24.250Z,100552.34
2022-08-12T19:15:58.053Z,100531.16
2022-08-12T19:18:30.893Z,100546.84
2022-08-12T19:21:06.568Z,100545.75
2022-08-12T19:23:39.678Z,100556.72
2022-08-12T19:26:10.852Z,100552.59
2022-08-12T19:28:40.587Z,100553.19
2022-08-12T19:31:44.872Z,100551.56
2022-08-12T19:37:38.361Z,100548.75
2022-08-12T19:40:20.465Z,100540.94
2022-08-12T19:43:17.929Z,100547.50
2022-08-12T19:45:56.663Z,100561.59
2022-08-12T19:48:30.570Z,100554.75
2022-08-12T19:51:08.922Z,100552.13
2022-08-12T19:53:56.926Z,100553.94
2022-08-12T19:56:25.160Z,100554.22
2022-08-12T19:58:53.105Z,100557.50
2022-08-12T20:01:21.651Z,100553.63
2022-08-12T20:03:57.727Z,100546.22
2022-08-12T20:06:33.911Z,100541.47
2022-08-12T20:09:01.692Z,100555.47
2022-08-12T20:12:10.198Z,100560.66
2022-08-12T20:14:19.273Z,100548.91
2022-08-12T20:16:53.252Z,100532.25
2022-08-12T20:19:52.754Z,100557.97
2022-08-12T20:22:29.817Z,100560.66
2022-08-12T20:25:05.195Z,100562.13
2022-08-12T20:28:05.186Z,100564.19
2022-08-12T20:30:37.557Z,100555.31
2022-08-12T20:33:17.665Z,100557.97
2022-08-12T20:36:13.784Z,100567.88
2022-08-12T20:38:40.080Z,100561.66
2022-08-12T20:41:16.713Z,100565.97
2022-08-12T20:43:52.035Z,100564.53
2022-08-12T20:46:20.108Z,100557.13
2022-08-12T20:48:55.048Z,100562.72
2022-08-12T20:51:27.676Z,100568.06
2022-08-12T20:53:58.781Z,100563.31
2022-08-12T20:56:37.034Z,100563.72
2022-08-12T20:59:14.743Z,100557.13
2022-08-12T21:01:48.635Z,100565.41
2022-08-12T21:04:36.539Z,100562.09
2022-08-12T21:07:09.396Z,100556.75
2022-08-12T21:09:42.195Z,100562.75
2022-08-12T21:12:31.421Z,100555.13
2022-08-12T21:15:06.258Z,100569.97
2022-08-12T21:18:11.420Z,100568.69
2022-08-12T21:20:54.386Z,100566.66
2022-08-12T21:23:22.645Z,100570.38
2022-08-12T21:25:56.221Z,100560.47
2022-08-12T21:28:27.550Z,100574.47
2022-08-12T21:32:35.031Z,100567.88
2022-08-12T21:34:08.964Z,100571.78
2022-08-12T21:36:43.390Z,100573.63
2022-08-12T21:39:32.635Z,100579.63
2022-08-12T21:42:06.517Z,100578.38
2022-08-12T21:45:46.083Z,100583.97
2022-08-12T21:47:23.658Z,100579.81
2022-08-12T21:50:03.087Z,100568.28
2022-08-12T21:52:41.204Z,100572.59
2022-08-12T21:55:17.799Z,100583.75
2022-08-12T21:57:53.718Z,100567.84
2022-08-12T22:00:32.835Z,100590.50
2022-08-12T22:04:11.172Z,100583.91
2022-08-12T22:06:26.535Z,100582.47
2022-08-12T22:09:04.047Z,100586.19
2022-08-12T22:11:42.246Z,100587.16
2022-08-12T22:14:21.765Z,100585.50
2022-08-12T22:16:53.356Z,100583.66
2022-08-12T22:19:22.900Z,100584.69
2022-08-12T22:21:54.763Z,100586.31
2022-08-12T22:24:30.082Z,100577.41
2022-08-12T22:27:14.347Z,100595.56
2022-08-12T22:30:08.510Z,100575.91
2022-08-12T22:32:44.807Z,100597.41
2022-08-12T22:35:55.346Z,100600.06
2022-08-12T22:38:20.642Z,100598.03
2022-08-12T22:40:49.334Z,100581.66
2022-08-12T22:43:58.876Z,100600.81
2022-08-12T22:46:42.748Z,100615.41
2022-08-12T22:49:37.074Z,100609.03
2022-08-12T22:52:18.507Z,100603.03
2022-08-12T22:55:02.725Z,100597.44
2022-08-12T22:57:54.052Z,100611.25
2022-08-12T23:00:24.760Z,100612.72
2022-08-12T23:03:02.905Z,100614.53
2022-08-12T23:05:57.170Z,100617.59
2022-08-12T23:08:29.990Z,100617.56
2022-08-12T23:11:00.030Z,100613.88
2022-08-12T23:13:45.894Z,100597.97
2022-08-12T23:16:28.619Z,100617.34
2022-08-12T23:19:17.634Z,100614.78
2022-08-12T23:22:05.206Z,100604.91
2022-08-12T23:24:53.759Z,100597.69
2022-08-12T23:27:51.526Z,100602.22
2022-08-12T23:30:32.379Z,100608.44
2022-08-12T23:33:20.251Z,100608.44
2022-08-12T23:35:59.294Z,100607.81
2022-08-12T23:38:30.679Z,100613.19
2022-08-12T23:41:01.590Z,100603.25
2022-08-12T23:43:38.860Z,100618.91
2022-08-12T23:46:10.377Z,100615.13
2022-08-12T23:48:38.620Z,100602.28
2022-08-12T23:51:22.331Z,100615.91
2022-08-12T23:54:00.024Z,100615.66
2022-08-12T23:56:33.953Z,100615.88
2022-08-12T23:59:03.999Z,100616.88
